sensor_id;sensor_type;location;lat;lon;timestamp;P1;durP1;ratioP1;P2;durP2;ratioP2
40339;SDS011;26044;50.864;20.658;2022-12-29T00:02:13;35.03;;;13.30;;
40339;SDS011;26044;50.864;20.658;2022-12-29T00:04:41;36.60;;;13.73;;
40339;SDS011;26044;50.864;20.658;2022-12-29T00:07:09;34.25;;;12.93;;
40339;SDS011;26044;50.864;20.658;2022-12-29T00:09:36;35.67;;;13.85;;
40339;SDS011;26044;50.864;20.658;2022-12-29T00:12:04;37.88;;;14.32;;
40339;SDS011;26044;50.864;20.658;2022-12-29T00:14:31;33.10;;;13.45;;
40339;SDS011;26044;50.864;20.658;2022-12-29T00:17:17;32.70;;;13.50;;
40339;SDS011;26044;50.864;20.658;2022-12-29T00:19:44;34.88;;;13.18;;
40339;SDS011;26044;50.864;20.658;2022-12-29T00:22:31;34.08;;;13.82;;
40339;SDS011;26044;50.864;20.658;2022-12-29T00:25:17;36.38;;;13.70;;
40339;SDS011;26044;50.864;20.658;2022-12-29T00:28:04;32.88;;;13.82;;
40339;SDS011;26044;50.864;20.658;2022-12-29T00:30:50;36.33;;;12.73;;
40339;SDS011;26044;50.864;20.658;2022-12-29T00:33:36;33.55;;;13.05;;
40339;SDS011;26044;50.864;20.658;2022-12-29T00:36:26;28.98;;;12.27;;
40339;SDS011;26044;50.864;20.658;2022-12-29T00:38:55;33.95;;;13.27;;
40339;SDS011;26044;50.864;20.658;2022-12-29T00:41:43;31.70;;;14.18;;
40339;SDS011;26044;50.864;20.658;2022-12-29T00:44:29;35.13;;;13.45;;
40339;SDS011;26044;50.864;20.658;2022-12-29T00:46:56;33.70;;;12.48;;
40339;SDS011;26044;50.864;20.658;2022-12-29T00:49:28;35.38;;;13.32;;
40339;SDS011;26044;50.864;20.658;2022-12-29T00:52:09;31.90;;;13.73;;
40339;SDS011;26044;50.864;20.658;2022-12-29T00:54:38;35.28;;;13.45;;
40339;SDS011;26044;50.864;20.658;2022-12-29T00:57:06;34.80;;;12.68;;
40339;SDS011;26044;50.864;20.658;2022-12-29T00:59:34;35.30;;;13.48;;
40339;SDS011;26044;50.864;20.658;2022-12-29T01:02:02;33.28;;;13.20;;
40339;SDS011;26044;50.864;20.658;2022-12-29T01:04:29;35.20;;;13.90;;
40339;SDS011;26044;50.864;20.658;2022-12-29T01:06:57;32.25;;;13.65;;
40339;SDS011;26044;50.864;20.658;2022-12-29T01:09:24;34.17;;;13.52;;
40339;SDS011;26044;50.864;20.658;2022-12-29T01:12:10;35.08;;;13.90;;
40339;SDS011;26044;50.864;20.658;2022-12-29T01:14:39;34.80;;;14.10;;
40339;SDS011;26044;50.864;20.658;2022-12-29T01:17:06;35.15;;;13.95;;
40339;SDS011;26044;50.864;20.658;2022-12-29T01:19:34;36.83;;;13.55;;
40339;SDS011;26044;50.864;20.658;2022-12-29T01:22:01;34.33;;;13.52;;
40339;SDS011;26044;50.864;20.658;2022-12-29T01:24:28;39.08;;;13.60;;
40339;SDS011;26044;50.864;20.658;2022-12-29T01:26:56;32.40;;;13.05;;
40339;SDS011;26044;50.864;20.658;2022-12-29T01:29:23;28.52;;;11.05;;
40339;SDS011;26044;50.864;20.658;2022-12-29T01:31:50;31.25;;;12.13;;
40339;SDS011;26044;50.864;20.658;2022-12-29T01:34:18;30.70;;;13.27;;
40339;SDS011;26044;50.864;20.658;2022-12-29T01:36:45;32.20;;;12.57;;
40339;SDS011;26044;50.864;20.658;2022-12-29T01:39:13;29.58;;;11.45;;
40339;SDS011;26044;50.864;20.658;2022-12-29T01:41:41;28.17;;;11.50;;
40339;SDS011;26044;50.864;20.658;2022-12-29T01:46:54;32.28;;;12.65;;
40339;SDS011;26044;50.864;20.658;2022-12-29T01:49:23;32.05;;;12.88;;
40339;SDS011;26044;50.864;20.658;2022-12-29T01:51:52;35.88;;;13.90;;
40339;SDS011;26044;50.864;20.658;2022-12-29T01:54:34;32.03;;;12.55;;
40339;SDS011;26044;50.864;20.658;2022-12-29T01:57:04;30.58;;;12.43;;
40339;SDS011;26044;50.864;20.658;2022-12-29T01:59:38;33.78;;;12.95;;
40339;SDS011;26044;50.864;20.658;2022-12-29T02:02:06;32.90;;;13.30;;
40339;SDS011;26044;50.864;20.658;2022-12-29T02:04:34;30.83;;;12.05;;
40339;SDS011;26044;50.864;20.658;2022-12-29T02:07:05;29.75;;;11.20;;
40339;SDS011;26044;50.864;20.658;2022-12-29T02:09:34;32.55;;;11.32;;
40339;SDS011;26044;50.864;20.658;2022-12-29T02:12:02;29.73;;;12.02;;
40339;SDS011;26044;50.864;20.658;2022-12-29T02:14:30;26.90;;;8.98;;
40339;SDS011;26044;50.864;20.658;2022-12-29T02:19:50;23.77;;;7.90;;
40339;SDS011;26044;50.864;20.658;2022-12-29T02:22:33;20.40;;;7.20;;
40339;SDS011;26044;50.864;20.658;2022-12-29T02:27:49;24.42;;;8.10;;
40339;SDS011;26044;50.864;20.658;2022-12-29T02:32:56;21.77;;;7.20;;
40339;SDS011;26044;50.864;20.658;2022-12-29T02:43:44;21.50;;;7.57;;
40339;SDS011;26044;50.864;20.658;2022-12-29T02:46:11;22.55;;;7.45;;
40339;SDS011;26044;50.864;20.658;2022-12-29T02:48:42;24.98;;;8.35;;
40339;SDS011;26044;50.864;20.658;2022-12-29T02:53:37;28.42;;;9.75;;
40339;SDS011;26044;50.864;20.658;2022-12-29T02:56:24;28.58;;;9.05;;
40339;SDS011;26044;50.864;20.658;2022-12-29T02:58:51;28.02;;;8.95;;
40339;SDS011;26044;50.864;20.658;2022-12-29T03:01:23;26.95;;;9.07;;
40339;SDS011;26044;50.864;20.658;2022-12-29T03:08:58;28.58;;;10.75;;
40339;SDS011;26044;50.864;20.658;2022-12-29T03:11:28;26.83;;;9.90;;
40339;SDS011;26044;50.864;20.658;2022-12-29T03:14:18;34.70;;;13.38;;
40339;SDS011;26044;50.864;20.658;2022-12-29T03:17:11;37.30;;;14.93;;
40339;SDS011;26044;50.864;20.658;2022-12-29T03:19:44;32.20;;;10.70;;
40339;SDS011;26044;50.864;20.658;2022-12-29T03:22:21;31.85;;;11.75;;
40339;SDS011;26044;50.864;20.658;2022-12-29T03:25:05;20.27;;;7.00;;
40339;SDS011;26044;50.864;20.658;2022-12-29T03:27:34;23.20;;;9.10;;
40339;SDS011;26044;50.864;20.658;2022-12-29T03:30:04;25.98;;;8.70;;
40339;SDS011;26044;50.864;20.658;2022-12-29T03:32:52;21.35;;;7.22;;
40339;SDS011;26044;50.864;20.658;2022-12-29T03:35:25;22.42;;;7.95;;
40339;SDS011;26044;50.864;20.658;2022-12-29T03:37:55;21.58;;;8.15;;
40339;SDS011;26044;50.864;20.658;2022-12-29T03:40:24;21.88;;;7.63;;
40339;SDS011;26044;50.864;20.658;2022-12-29T03:42:53;26.73;;;8.95;;
40339;SDS011;26044;50.864;20.658;2022-12-29T03:45:20;25.70;;;8.27;;
40339;SDS011;26044;50.864;20.658;2022-12-29T03:47:47;23.15;;;7.30;;
40339;SDS011;26044;50.864;20.658;2022-12-29T03:50:15;25.02;;;8.65;;
40339;SDS011;26044;50.864;20.658;2022-12-29T03:52:43;25.67;;;8.20;;
40339;SDS011;26044;50.864;20.658;2022-12-29T03:55:11;21.13;;;7.60;;
40339;SDS011;26044;50.864;20.658;2022-12-29T03:57:38;22.63;;;8.45;;
40339;SDS011;26044;50.864;20.658;2022-12-29T04:00:07;24.20;;;8.27;;
40339;SDS011;26044;50.864;20.658;2022-12-29T04:02:34;22.75;;;7.53;;
40339;SDS011;26044;50.864;20.658;2022-12-29T04:05:01;22.15;;;7.55;;
40339;SDS011;26044;50.864;20.658;2022-12-29T04:07:29;20.92;;;8.32;;
40339;SDS011;26044;50.864;20.658;2022-12-29T04:09:56;21.95;;;8.13;;
40339;SDS011;26044;50.864;20.658;2022-12-29T04:12:24;20.60;;;7.68;;
40339;SDS011;26044;50.864;20.658;2022-12-29T04:14:51;21.73;;;8.07;;
40339;SDS011;26044;50.864;20.658;2022-12-29T04:17:19;21.35;;;7.97;;
40339;SDS011;26044;50.864;20.658;2022-12-29T04:19:46;25.95;;;7.70;;
40339;SDS011;26044;50.864;20.658;2022-12-29T04:22:13;21.70;;;8.23;;
40339;SDS011;26044;50.864;20.658;2022-12-29T04:24:41;25.55;;;8.23;;
40339;SDS011;26044;50.864;20.658;2022-12-29T04:27:08;22.05;;;7.18;;
40339;SDS011;26044;50.864;20.658;2022-12-29T04:29:35;20.73;;;7.13;;
40339;SDS011;26044;50.864;20.658;2022-12-29T04:32:03;20.95;;;7.22;;
40339;SDS011;26044;50.864;20.658;2022-12-29T04:34:30;19.75;;;6.70;;
40339;SDS011;26044;50.864;20.658;2022-12-29T04:36:57;21.15;;;7.22;;
40339;SDS011;26044;50.864;20.658;2022-12-29T04:39:24;20.92;;;6.63;;
40339;SDS011;26044;50.864;20.658;2022-12-29T04:41:52;20.55;;;6.20;;
40339;SDS011;26044;50.864;20.658;2022-12-29T04:44:19;21.15;;;7.32;;
40339;SDS011;26044;50.864;20.658;2022-12-29T04:46:46;20.25;;;7.55;;
40339;SDS011;26044;50.864;20.658;2022-12-29T04:49:14;22.00;;;8.25;;
40339;SDS011;26044;50.864;20.658;2022-12-29T04:51:43;22.80;;;6.60;;
40339;SDS011;26044;50.864;20.658;2022-12-29T04:54:10;22.63;;;8.27;;
40339;SDS011;26044;50.864;20.658;2022-12-29T04:56:37;20.05;;;6.60;;
40339;SDS011;26044;50.864;20.658;2022-12-29T04:59:05;20.50;;;7.05;;
40339;SDS011;26044;50.864;20.658;2022-12-29T05:01:32;18.83;;;6.43;;
40339;SDS011;26044;50.864;20.658;2022-12-29T05:04:00;22.35;;;7.50;;
40339;SDS011;26044;50.864;20.658;2022-12-29T05:06:27;22.10;;;7.25;;
40339;SDS011;26044;50.864;20.658;2022-12-29T05:08:54;19.67;;;7.15;;
40339;SDS011;26044;50.864;20.658;2022-12-29T05:11:21;21.60;;;7.10;;
40339;SDS011;26044;50.864;20.658;2022-12-29T05:13:49;20.00;;;6.35;;
40339;SDS011;26044;50.864;20.658;2022-12-29T05:16:16;19.25;;;6.63;;
40339;SDS011;26044;50.864;20.658;2022-12-29T05:18:43;22.00;;;6.90;;
40339;SDS011;26044;50.864;20.658;2022-12-29T05:21:11;19.42;;;7.13;;
40339;SDS011;26044;50.864;20.658;2022-12-29T05:23:38;21.02;;;7.32;;
40339;SDS011;26044;50.864;20.658;2022-12-29T05:26:05;21.50;;;7.25;;
40339;SDS011;26044;50.864;20.658;2022-12-29T05:28:33;20.60;;;6.97;;
40339;SDS011;26044;50.864;20.658;2022-12-29T05:31:00;22.15;;;8.15;;
40339;SDS011;26044;50.864;20.658;2022-12-29T05:33:28;19.10;;;6.63;;
40339;SDS011;26044;50.864;20.658;2022-12-29T05:35:55;21.45;;;6.78;;
40339;SDS011;26044;50.864;20.658;2022-12-29T05:38:22;20.60;;;7.05;;
40339;SDS011;26044;50.864;20.658;2022-12-29T05:40:49;20.75;;;7.40;;
40339;SDS011;26044;50.864;20.658;2022-12-29T05:43:17;21.55;;;7.65;;
40339;SDS011;26044;50.864;20.658;2022-12-29T05:45:44;22.50;;;7.95;;
40339;SDS011;26044;50.864;20.658;2022-12-29T05:48:15;22.23;;;7.95;;
40339;SDS011;26044;50.864;20.658;2022-12-29T05:50:42;21.35;;;7.82;;
40339;SDS011;26044;50.864;20.658;2022-12-29T05:53:09;21.48;;;7.25;;
40339;SDS011;26044;50.864;20.658;2022-12-29T05:55:36;21.02;;;7.38;;
40339;SDS011;26044;50.864;20.658;2022-12-29T05:58:11;21.05;;;6.93;;
40339;SDS011;26044;50.864;20.658;2022-12-29T06:00:39;19.60;;;6.82;;
40339;SDS011;26044;50.864;20.658;2022-12-29T06:03:07;23.95;;;8.65;;
40339;SDS011;26044;50.864;20.658;2022-12-29T06:05:34;27.27;;;9.60;;
40339;SDS011;26044;50.864;20.658;2022-12-29T06:08:01;25.20;;;8.85;;
40339;SDS011;26044;50.864;20.658;2022-12-29T06:10:29;21.98;;;7.95;;
40339;SDS011;26044;50.864;20.658;2022-12-29T06:12:56;20.92;;;7.38;;
40339;SDS011;26044;50.864;20.658;2022-12-29T06:15:24;22.92;;;7.57;;
40339;SDS011;26044;50.864;20.658;2022-12-29T06:17:51;22.33;;;8.05;;
40339;SDS011;26044;50.864;20.658;2022-12-29T06:20:18;20.80;;;7.85;;
40339;SDS011;26044;50.864;20.658;2022-12-29T06:22:45;20.73;;;8.15;;
40339;SDS011;26044;50.864;20.658;2022-12-29T06:25:13;19.30;;;7.47;;
40339;SDS011;26044;50.864;20.658;2022-12-29T06:27:40;23.38;;;8.10;;
40339;SDS011;26044;50.864;20.658;2022-12-29T06:30:08;24.88;;;8.75;;
40339;SDS011;26044;50.864;20.658;2022-12-29T06:32:36;21.45;;;7.30;;
40339;SDS011;26044;50.864;20.658;2022-12-29T06:35:04;24.33;;;7.95;;
40339;SDS011;26044;50.864;20.658;2022-12-29T06:37:32;24.02;;;8.90;;
40339;SDS011;26044;50.864;20.658;2022-12-29T06:39:59;23.83;;;8.98;;
40339;SDS011;26044;50.864;20.658;2022-12-29T06:42:27;22.27;;;8.32;;
40339;SDS011;26044;50.864;20.658;2022-12-29T06:44:54;21.45;;;7.85;;
40339;SDS011;26044;50.864;20.658;2022-12-29T06:47:24;23.27;;;9.02;;
40339;SDS011;26044;50.864;20.658;2022-12-29T06:49:52;23.08;;;9.38;;
40339;SDS011;26044;50.864;20.658;2022-12-29T06:52:20;29.20;;;10.35;;
40339;SDS011;26044;50.864;20.658;2022-12-29T06:54:47;28.80;;;10.30;;
40339;SDS011;26044;50.864;20.658;2022-12-29T06:57:14;22.52;;;8.00;;
40339;SDS011;26044;50.864;20.658;2022-12-29T06:59:42;24.13;;;7.85;;
40339;SDS011;26044;50.864;20.658;2022-12-29T07:02:10;23.23;;;8.32;;
40339;SDS011;26044;50.864;20.658;2022-12-29T07:04:38;55.90;;;24.50;;
40339;SDS011;26044;50.864;20.658;2022-12-29T07:07:05;46.08;;;18.63;;
40339;SDS011;26044;50.864;20.658;2022-12-29T07:09:32;36.92;;;13.85;;
40339;SDS011;26044;50.864;20.658;2022-12-29T07:12:00;27.50;;;10.30;;
40339;SDS011;26044;50.864;20.658;2022-12-29T07:14:27;23.80;;;8.70;;
40339;SDS011;26044;50.864;20.658;2022-12-29T07:16:55;22.05;;;8.35;;
40339;SDS011;26044;50.864;20.658;2022-12-29T07:19:22;23.35;;;8.13;;
40339;SDS011;26044;50.864;20.658;2022-12-29T07:21:50;20.30;;;7.30;;
40339;SDS011;26044;50.864;20.658;2022-12-29T07:24:17;21.58;;;6.53;;
40339;SDS011;26044;50.864;20.658;2022-12-29T07:26:44;19.02;;;6.80;;
40339;SDS011;26044;50.864;20.658;2022-12-29T07:29:12;20.77;;;8.00;;
40339;SDS011;26044;50.864;20.658;2022-12-29T07:31:39;30.65;;;10.90;;
40339;SDS011;26044;50.864;20.658;2022-12-29T07:34:07;31.65;;;10.98;;
40339;SDS011;26044;50.864;20.658;2022-12-29T07:36:35;30.45;;;10.88;;
40339;SDS011;26044;50.864;20.658;2022-12-29T07:39:02;20.23;;;7.82;;
40339;SDS011;26044;50.864;20.658;2022-12-29T07:41:30;19.27;;;7.90;;
40339;SDS011;26044;50.864;20.658;2022-12-29T07:43:57;16.90;;;6.28;;
40339;SDS011;26044;50.864;20.658;2022-12-29T07:46:24;20.95;;;6.90;;
40339;SDS011;26044;50.864;20.658;2022-12-29T07:49:12;22.77;;;7.63;;
40339;SDS011;26044;50.864;20.658;2022-12-29T07:51:39;20.20;;;6.75;;
40339;SDS011;26044;50.864;20.658;2022-12-29T07:54:06;20.95;;;7.28;;
40339;SDS011;26044;50.864;20.658;2022-12-29T07:56:34;20.88;;;7.40;;
40339;SDS011;26044;50.864;20.658;2022-12-29T07:59:01;20.05;;;7.30;;
40339;SDS011;26044;50.864;20.658;2022-12-29T08:01:29;22.58;;;8.27;;
40339;SDS011;26044;50.864;20.658;2022-12-29T08:03:56;22.65;;;8.35;;
40339;SDS011;26044;50.864;20.658;2022-12-29T08:06:23;22.73;;;8.57;;
40339;SDS011;26044;50.864;20.658;2022-12-29T08:08:51;21.27;;;7.40;;
40339;SDS011;26044;50.864;20.658;2022-12-29T08:11:18;23.35;;;7.63;;
40339;SDS011;26044;50.864;20.658;2022-12-29T08:13:46;21.80;;;7.38;;
40339;SDS011;26044;50.864;20.658;2022-12-29T08:16:13;21.63;;;7.97;;
40339;SDS011;26044;50.864;20.658;2022-12-29T08:18:41;22.35;;;7.22;;
40339;SDS011;26044;50.864;20.658;2022-12-29T08:21:08;19.67;;;7.07;;
40339;SDS011;26044;50.864;20.658;2022-12-29T08:23:35;19.20;;;7.13;;
40339;SDS011;26044;50.864;20.658;2022-12-29T08:26:04;24.85;;;9.15;;
40339;SDS011;26044;50.864;20.658;2022-12-29T08:28:40;25.02;;;7.50;;
40339;SDS011;26044;50.864;20.658;2022-12-29T08:31:12;22.00;;;7.72;;
40339;SDS011;26044;50.864;20.658;2022-12-29T08:33:43;24.17;;;9.27;;
40339;SDS011;26044;50.864;20.658;2022-12-29T08:36:11;23.40;;;8.00;;
40339;SDS011;26044;50.864;20.658;2022-12-29T08:39:11;26.25;;;8.73;;
40339;SDS011;26044;50.864;20.658;2022-12-29T08:41:41;22.20;;;8.25;;
40339;SDS011;26044;50.864;20.658;2022-12-29T08:44:11;23.75;;;8.57;;
40339;SDS011;26044;50.864;20.658;2022-12-29T08:46:54;21.33;;;8.25;;
40339;SDS011;26044;50.864;20.658;2022-12-29T08:49:28;25.23;;;9.30;;
40339;SDS011;26044;50.864;20.658;2022-12-29T08:52:34;21.23;;;8.23;;
40339;SDS011;26044;50.864;20.658;2022-12-29T08:55:34;23.95;;;8.70;;
40339;SDS011;26044;50.864;20.658;2022-12-29T09:04:50;23.58;;;8.30;;
40339;SDS011;26044;50.864;20.658;2022-12-29T09:07:42;22.20;;;8.98;;
40339;SDS011;26044;50.864;20.658;2022-12-29T09:10:43;25.52;;;8.95;;
40339;SDS011;26044;50.864;20.658;2022-12-29T09:13:37;24.50;;;9.18;;
40339;SDS011;26044;50.864;20.658;2022-12-29T09:19:49;24.50;;;7.95;;
40339;SDS011;26044;50.864;20.658;2022-12-29T09:22:36;25.42;;;8.70;;
40339;SDS011;26044;50.864;20.658;2022-12-29T09:25:28;21.77;;;7.63;;
40339;SDS011;26044;50.864;20.658;2022-12-29T09:28:48;22.10;;;7.90;;
40339;SDS011;26044;50.864;20.658;2022-12-29T09:31:51;23.25;;;8.85;;
40339;SDS011;26044;50.864;20.658;2022-12-29T09:34:52;28.77;;;8.75;;
40339;SDS011;26044;50.864;20.658;2022-12-29T09:37:25;26.13;;;9.02;;
40339;SDS011;26044;50.864;20.658;2022-12-29T09:40:00;24.38;;;9.57;;
40339;SDS011;26044;50.864;20.658;2022-12-29T09:42:29;22.60;;;8.88;;
40339;SDS011;26044;50.864;20.658;2022-12-29T09:47:48;25.58;;;8.85;;
40339;SDS011;26044;50.864;20.658;2022-12-29T09:50:30;24.77;;;8.60;;
40339;SDS011;26044;50.864;20.658;2022-12-29T09:56:00;22.02;;;8.73;;
40339;SDS011;26044;50.864;20.658;2022-12-29T09:59:00;23.77;;;8.77;;
40339;SDS011;26044;50.864;20.658;2022-12-29T10:04:41;22.58;;;9.65;;
40339;SDS011;26044;50.864;20.658;2022-12-29T10:25:25;23.13;;;7.63;;
40339;SDS011;26044;50.864;20.658;2022-12-29T10:27:58;24.85;;;8.50;;
40339;SDS011;26044;50.864;20.658;2022-12-29T10:30:29;25.02;;;9.02;;
40339;SDS011;26044;50.864;20.658;2022-12-29T10:32:57;27.58;;;9.85;;
40339;SDS011;26044;50.864;20.658;2022-12-29T10:35:28;24.70;;;9.20;;
40339;SDS011;26044;50.864;20.658;2022-12-29T10:40:42;23.73;;;8.32;;
40339;SDS011;26044;50.864;20.658;2022-12-29T10:45:53;25.13;;;7.90;;
40339;SDS011;26044;50.864;20.658;2022-12-29T10:48:31;22.13;;;7.43;;
40339;SDS011;26044;50.864;20.658;2022-12-29T10:51:00;19.48;;;7.05;;
40339;SDS011;26044;50.864;20.658;2022-12-29T10:59:26;34.85;;;14.15;;
40339;SDS011;26044;50.864;20.658;2022-12-29T11:07:25;19.85;;;6.55;;
40339;SDS011;26044;50.864;20.658;2022-12-29T11:16:00;22.35;;;9.02;;
40339;SDS011;26044;50.864;20.658;2022-12-29T11:18:43;23.02;;;8.15;;
40339;SDS011;26044;50.864;20.658;2022-12-29T11:23:58;25.98;;;10.07;;
40339;SDS011;26044;50.864;20.658;2022-12-29T11:26:26;26.77;;;9.30;;
40339;SDS011;26044;50.864;20.658;2022-12-29T11:29:11;23.55;;;8.25;;
40339;SDS011;26044;50.864;20.658;2022-12-29T11:31:44;21.45;;;7.30;;
40339;SDS011;26044;50.864;20.658;2022-12-29T11:34:22;21.92;;;7.57;;
40339;SDS011;26044;50.864;20.658;2022-12-29T11:36:50;22.75;;;8.25;;
40339;SDS011;26044;50.864;20.658;2022-12-29T11:39:37;20.35;;;7.70;;
40339;SDS011;26044;50.864;20.658;2022-12-29T11:42:17;16.98;;;5.55;;
40339;SDS011;26044;50.864;20.658;2022-12-29T11:45:03;21.52;;;6.75;;
40339;SDS011;26044;50.864;20.658;2022-12-29T11:47:36;22.02;;;7.28;;
40339;SDS011;26044;50.864;20.658;2022-12-29T11:50:05;18.70;;;5.95;;
40339;SDS011;26044;50.864;20.658;2022-12-29T11:52:35;20.88;;;6.85;;
40339;SDS011;26044;50.864;20.658;2022-12-29T11:55:07;18.73;;;6.60;;
40339;SDS011;26044;50.864;20.658;2022-12-29T11:57:43;19.58;;;7.22;;
40339;SDS011;26044;50.864;20.658;2022-12-29T12:00:16;19.52;;;6.50;;
40339;SDS011;26044;50.864;20.658;2022-12-29T12:03:07;20.80;;;6.60;;
40339;SDS011;26044;50.864;20.658;2022-12-29T12:05:38;18.92;;;7.03;;
40339;SDS011;26044;50.864;20.658;2022-12-29T12:10:48;21.70;;;6.65;;
40339;SDS011;26044;50.864;20.658;2022-12-29T12:15:52;20.85;;;7.78;;
40339;SDS011;26044;50.864;20.658;2022-12-29T12:18:33;22.02;;;6.53;;
40339;SDS011;26044;50.864;20.658;2022-12-29T12:21:22;19.95;;;6.07;;
40339;SDS011;26044;50.864;20.658;2022-12-29T12:23:57;16.40;;;5.75;;
40339;SDS011;26044;50.864;20.658;2022-12-29T12:27:10;18.77;;;6.15;;
40339;SDS011;26044;50.864;20.658;2022-12-29T12:29:22;19.40;;;6.47;;
40339;SDS011;26044;50.864;20.658;2022-12-29T12:31:55;19.45;;;6.25;;
40339;SDS011;26044;50.864;20.658;2022-12-29T12:37:03;22.52;;;7.93;;
40339;SDS011;26044;50.864;20.658;2022-12-29T13:08:44;24.30;;;8.02;;
40339;SDS011;26044;50.864;20.658;2022-12-29T13:16:35;21.13;;;6.88;;
40339;SDS011;26044;50.864;20.658;2022-12-29T13:27:20;23.60;;;7.68;;
40339;SDS011;26044;50.864;20.658;2022-12-29T13:30:15;21.85;;;7.55;;
40339;SDS011;26044;50.864;20.658;2022-12-29T13:37:56;21.67;;;8.02;;
40339;SDS011;26044;50.864;20.658;2022-12-29T13:40:25;22.17;;;7.60;;
40339;SDS011;26044;50.864;20.658;2022-12-29T13:42:53;23.80;;;8.32;;
40339;SDS011;26044;50.864;20.658;2022-12-29T13:45:26;22.92;;;8.00;;
40339;SDS011;26044;50.864;20.658;2022-12-29T13:47:57;21.80;;;7.80;;
40339;SDS011;26044;50.864;20.658;2022-12-29T13:50:28;25.15;;;9.15;;
40339;SDS011;26044;50.864;20.658;2022-12-29T13:55:49;23.90;;;8.07;;
40339;SDS011;26044;50.864;20.658;2022-12-29T14:01:41;22.50;;;8.38;;
40339;SDS011;26044;50.864;20.658;2022-12-29T14:04:12;22.17;;;8.35;;
40339;SDS011;26044;50.864;20.658;2022-12-29T14:06:39;24.58;;;8.68;;
40339;SDS011;26044;50.864;20.658;2022-12-29T14:09:31;23.00;;;8.15;;
40339;SDS011;26044;50.864;20.658;2022-12-29T14:12:01;24.88;;;9.05;;
40339;SDS011;26044;50.864;20.658;2022-12-29T14:14:45;27.25;;;9.18;;
40339;SDS011;26044;50.864;20.658;2022-12-29T14:21:03;23.50;;;8.98;;
40339;SDS011;26044;50.864;20.658;2022-12-29T14:23:46;29.30;;;9.00;;
40339;SDS011;26044;50.864;20.658;2022-12-29T14:26:34;24.85;;;10.23;;
40339;SDS011;26044;50.864;20.658;2022-12-29T14:31:52;23.73;;;8.30;;
40339;SDS011;26044;50.864;20.658;2022-12-29T14:34:29;25.75;;;9.63;;
40339;SDS011;26044;50.864;20.658;2022-12-29T14:37:01;23.92;;;8.98;;
40339;SDS011;26044;50.864;20.658;2022-12-29T14:44:28;27.63;;;10.55;;
40339;SDS011;26044;50.864;20.658;2022-12-29T14:50:12;31.60;;;10.80;;
40339;SDS011;26044;50.864;20.658;2022-12-29T14:52:42;32.55;;;12.70;;
40339;SDS011;26044;50.864;20.658;2022-12-29T14:57:48;36.75;;;14.57;;
40339;SDS011;26044;50.864;20.658;2022-12-29T15:00:22;33.47;;;12.98;;
40339;SDS011;26044;50.864;20.658;2022-12-29T15:03:04;34.42;;;13.30;;
40339;SDS011;26044;50.864;20.658;2022-12-29T15:07:59;33.97;;;13.85;;
40339;SDS011;26044;50.864;20.658;2022-12-29T15:10:27;34.38;;;14.77;;
40339;SDS011;26044;50.864;20.658;2022-12-29T15:13:02;43.67;;;18.27;;
40339;SDS011;26044;50.864;20.658;2022-12-29T15:15:35;41.63;;;16.92;;
40339;SDS011;26044;50.864;20.658;2022-12-29T15:18:21;38.85;;;17.67;;
40339;SDS011;26044;50.864;20.658;2022-12-29T15:20:50;43.65;;;18.75;;
40339;SDS011;26044;50.864;20.658;2022-12-29T15:23:18;43.30;;;18.88;;
40339;SDS011;26044;50.864;20.658;2022-12-29T15:28:52;45.85;;;19.38;;
40339;SDS011;26044;50.864;20.658;2022-12-29T15:31:22;41.55;;;20.65;;
40339;SDS011;26044;50.864;20.658;2022-12-29T15:34:08;46.55;;;21.35;;
40339;SDS011;26044;50.864;20.658;2022-12-29T15:36:37;43.85;;;19.50;;
40339;SDS011;26044;50.864;20.658;2022-12-29T15:39:25;47.03;;;20.75;;
40339;SDS011;26044;50.864;20.658;2022-12-29T15:41:55;43.67;;;19.52;;
40339;SDS011;26044;50.864;20.658;2022-12-29T15:44:34;49.75;;;22.52;;
40339;SDS011;26044;50.864;20.658;2022-12-29T15:47:04;51.58;;;21.73;;
40339;SDS011;26044;50.864;20.658;2022-12-29T15:49:32;50.78;;;23.25;;
40339;SDS011;26044;50.864;20.658;2022-12-29T15:52:00;50.13;;;23.23;;
40339;SDS011;26044;50.864;20.658;2022-12-29T15:54:27;49.58;;;24.83;;
40339;SDS011;26044;50.864;20.658;2022-12-29T15:56:57;56.47;;;26.88;;
40339;SDS011;26044;50.864;20.658;2022-12-29T15:59:25;54.47;;;26.88;;
40339;SDS011;26044;50.864;20.658;2022-12-29T16:01:55;52.97;;;25.27;;
40339;SDS011;26044;50.864;20.658;2022-12-29T16:04:26;45.83;;;22.50;;
40339;SDS011;26044;50.864;20.658;2022-12-29T16:09:43;58.05;;;26.05;;
40339;SDS011;26044;50.864;20.658;2022-12-29T16:12:18;51.95;;;24.83;;
40339;SDS011;26044;50.864;20.658;2022-12-29T16:14:49;52.75;;;24.48;;
40339;SDS011;26044;50.864;20.658;2022-12-29T16:17:20;48.13;;;24.42;;
40339;SDS011;26044;50.864;20.658;2022-12-29T16:19:49;54.10;;;25.15;;
40339;SDS011;26044;50.864;20.658;2022-12-29T16:24:54;53.33;;;25.20;;
40339;SDS011;26044;50.864;20.658;2022-12-29T16:27:37;61.55;;;27.52;;
40339;SDS011;26044;50.864;20.658;2022-12-29T16:30:06;52.80;;;23.85;;
40339;SDS011;26044;50.864;20.658;2022-12-29T16:32:44;54.65;;;25.48;;
40339;SDS011;26044;50.864;20.658;2022-12-29T16:37:39;57.15;;;25.33;;
40339;SDS011;26044;50.864;20.658;2022-12-29T16:40:27;61.60;;;26.77;;
40339;SDS011;26044;50.864;20.658;2022-12-29T16:43:02;58.22;;;26.98;;
40339;SDS011;26044;50.864;20.658;2022-12-29T16:46:07;56.78;;;27.35;;
40339;SDS011;26044;50.864;20.658;2022-12-29T16:48:27;56.42;;;26.38;;
40339;SDS011;26044;50.864;20.658;2022-12-29T16:53:42;58.63;;;26.05;;
40339;SDS011;26044;50.864;20.658;2022-12-29T16:56:19;58.08;;;26.20;;
40339;SDS011;26044;50.864;20.658;2022-12-29T16:58:49;54.58;;;25.52;;
40339;SDS011;26044;50.864;20.658;2022-12-29T17:01:18;54.60;;;25.73;;
40339;SDS011;26044;50.864;20.658;2022-12-29T17:03:48;55.67;;;28.38;;
40339;SDS011;26044;50.864;20.658;2022-12-29T17:06:17;64.95;;;30.25;;
40339;SDS011;26044;50.864;20.658;2022-12-29T17:08:45;70.63;;;31.55;;
40339;SDS011;26044;50.864;20.658;2022-12-29T17:11:36;113.40;;;51.15;;
40339;SDS011;26044;50.864;20.658;2022-12-29T17:17:03;94.40;;;44.05;;
40339;SDS011;26044;50.864;20.658;2022-12-29T17:19:32;98.75;;;44.90;;
40339;SDS011;26044;50.864;20.658;2022-12-29T17:22:00;92.32;;;43.25;;
40339;SDS011;26044;50.864;20.658;2022-12-29T17:24:28;89.00;;;41.35;;
40339;SDS011;26044;50.864;20.658;2022-12-29T17:26:56;84.32;;;36.38;;
40339;SDS011;26044;50.864;20.658;2022-12-29T17:29:29;83.22;;;38.03;;
40339;SDS011;26044;50.864;20.658;2022-12-29T17:31:57;83.82;;;38.67;;
40339;SDS011;26044;50.864;20.658;2022-12-29T17:34:24;74.70;;;37.70;;
40339;SDS011;26044;50.864;20.658;2022-12-29T17:36:52;65.13;;;30.98;;
40339;SDS011;26044;50.864;20.658;2022-12-29T17:39:19;72.30;;;33.05;;
40339;SDS011;26044;50.864;20.658;2022-12-29T17:41:47;75.35;;;36.22;;
40339;SDS011;26044;50.864;20.658;2022-12-29T17:44:16;71.82;;;35.20;;
40339;SDS011;26044;50.864;20.658;2022-12-29T17:46:44;70.65;;;36.15;;
40339;SDS011;26044;50.864;20.658;2022-12-29T17:49:12;72.47;;;36.20;;
40339;SDS011;26044;50.864;20.658;2022-12-29T17:51:41;72.88;;;35.83;;
40339;SDS011;26044;50.864;20.658;2022-12-29T17:54:21;75.68;;;35.45;;